Hayase Maru — JD2583 — position and weather

sailwx.info

Track history (hours):
 
Tides and Currents Weather Stations Pressure Air Temp Water Temp Dewpoint Dewpoint Depression Visibility Wind Speed Wind Dir Waves Ship Positions

Hayase Maru

Last reported at 2017-Aug-18 06:35 UTC. Time now 2017-Aug-22 18:39 UTC.
Position N 34°37' E 134°56'.

Length 73 m; draft 4 m.

Type: Ship. MMSI: 431000395.

Date/timePositionNaut miles runAvg speedWind from/ knotsBaromVisibWave heightAir tempDewpointWater temp
2017-Aug-18 06:35N 34°37' E 134°56'213.9
2017-Aug-18 06:26N 34°37' E 134°59'613.7
2017-Aug-18 06:00N 34°36' E 135°05'612.1
2017-Aug-18 05:30N 34°36' E 135°13'612.0
2017-Aug-18 05:00N 34°36' E 135°20'610.3
2017-Aug-18 04:28N 34°35' E 135°27'1 1.8
2017-Aug-18 04:00N 34°34' E 135°27'0 0.0
2017-Aug-18 02:55N 34°34' E 135°27'0 0.0
2017-Aug-18 00:13N 34°34' E 135°27'0 0.1
2017-Aug-17 23:49N 34°34' E 135°27'0 0.1
2017-Aug-17 20:48N 34°35' E 135°27'0 0.0
2017-Aug-17 18:24N 34°35' E 135°27'0 0.0
2017-Aug-17 16:00N 34°35' E 135°27'0 0.0
2017-Aug-17 15:24N 34°35' E 135°27'0 0.0
2017-Aug-17 15:00N 34°35' E 135°27'0 0.0
2017-Aug-17 14:30N 34°35' E 135°27'0 0.0
2017-Aug-17 13:00N 34°35' E 135°27'0 0.0
2017-Aug-17 06:00N 34°35' E 135°27'4 7.8
2017-Aug-17 05:30N 34°36' E 135°22'612.3
2017-Aug-17 05:00N 34°32' E 135°17'612.5
2017-Aug-17 04:30N 34°27' E 135°12'612.7
2017-Aug-17 04:01N 34°23' E 135°07'612.4
2017-Aug-17 03:30N 34°17' E 135°04'4 7.7
2017-Aug-17 03:00N 34°14' E 135°07'0 0.2
2017-Aug-17 02:30N 34°15' E 135°07'0 0.2
2017-Aug-17 01:57N 34°15' E 135°07'0 0.1
2017-Aug-17 01:27N 34°15' E 135°07'0 0.0
2017-Aug-17 00:58N 34°15' E 135°07'0 0.0
2017-Aug-17 00:29N 34°15' E 135°07'0 0.0
2017-Aug-16 23:56N 34°15' E 135°07'0 0.0
2017-Aug-16 23:30N 34°15' E 135°07'0 0.0
2017-Aug-16 23:00N 34°15' E 135°07'0 0.1
2017-Aug-16 22:30N 34°15' E 135°07'0 0.1
2017-Aug-16 21:56N 34°14' E 135°07'1 1.3
2017-Aug-16 21:30N 34°15' E 135°06'0 0.1
2017-Aug-16 21:00N 34°15' E 135°06'0 0.0
2017-Aug-16 20:30N 34°15' E 135°06'0 0.0
2017-Aug-16 20:00N 34°15' E 135°06'0 0.1
2017-Aug-16 19:30N 34°14' E 135°06'0 0.1
2017-Aug-16 19:00N 34°14' E 135°06'0 0.0
2017-Aug-16 18:30N 34°15' E 135°06'0 0.1
2017-Aug-16 18:01N 34°15' E 135°06'0 0.1
2017-Aug-16 17:30N 34°15' E 135°06'0 0.0
2017-Aug-16 17:00N 34°15' E 135°06'0 0.0
2017-Aug-16 16:30N 34°15' E 135°06'0 0.0
2017-Aug-16 16:00N 34°15' E 135°06'0 0.0
2017-Aug-16 15:30N 34°15' E 135°06'0 0.0
2017-Aug-16 15:00N 34°15' E 135°06'0 0.0
2017-Aug-16 14:30N 34°15' E 135°06'0 0.0
2017-Aug-16 14:00N 34°15' E 135°06'0 0.0
2017-Aug-16 13:31N 34°15' E 135°06'0 0.0
2017-Aug-16 13:00N 34°15' E 135°06'0 0.0
2017-Aug-16 12:30N 34°15' E 135°06'0 0.0
2017-Aug-16 12:00N 34°15' E 135°06'0 0.0
2017-Aug-16 11:31N 34°15' E 135°06'0 0.0
2017-Aug-16 11:00N 34°15' E 135°06'0 0.0
2017-Aug-16 10:30N 34°15' E 135°06'0 0.1
2017-Aug-16 10:00N 34°15' E 135°06'0 0.0
2017-Aug-16 09:30N 34°15' E 135°06'0 0.0
2017-Aug-16 09:00N 34°15' E 135°06'0 0.0
2017-Aug-16 08:30N 34°15' E 135°06'0 0.1
2017-Aug-16 08:00N 34°15' E 135°06'4 7.3
2017-Aug-16 07:30N 34°11' E 135°05'228 8.8
2017-Aug-15 05:35N 34°51' E 139°37'110.7
2017-Aug-15 05:29N 34°51' E 139°39'1110.9
2017-Aug-15 04:28N 34°52' E 139°52'  
Track history (hours):
 
Tides and Currents Weather Stations Pressure Air Temp Water Temp Dewpoint Dewpoint Depression Visibility Wind Speed Wind Dir Waves Ship Positions

Hayase Maru

Last reported at 2017-Aug-18 06:35 UTC. Time now 2017-Aug-22 18:39 UTC.
Position N 34°37' E 134°56'.

Length 73 m; draft 4 m.

Type: Ship. MMSI: 431000395.

Date/timePositionNaut miles runAvg speedWind from/ knotsBaromVisibWave heightAir tempDewpointWater temp
2017-Aug-18 06:35N 34°37' E 134°56'213.9
2017-Aug-18 06:26N 34°37' E 134°59'613.7
2017-Aug-18 06:00N 34°36' E 135°05'612.1
2017-Aug-18 05:30N 34°36' E 135°13'612.0
2017-Aug-18 05:00N 34°36' E 135°20'610.3
2017-Aug-18 04:28N 34°35' E 135°27'1 1.8
2017-Aug-18 04:00N 34°34' E 135°27'0 0.0
2017-Aug-18 02:55N 34°34' E 135°27'0 0.0
2017-Aug-18 00:13N 34°34' E 135°27'0 0.1
2017-Aug-17 23:49N 34°34' E 135°27'0 0.1
2017-Aug-17 20:48N 34°35' E 135°27'0 0.0
2017-Aug-17 18:24N 34°35' E 135°27'0 0.0
2017-Aug-17 16:00N 34°35' E 135°27'0 0.0
2017-Aug-17 15:24N 34°35' E 135°27'0 0.0
2017-Aug-17 15:00N 34°35' E 135°27'0 0.0
2017-Aug-17 14:30N 34°35' E 135°27'0 0.0
2017-Aug-17 13:00N 34°35' E 135°27'0 0.0
2017-Aug-17 06:00N 34°35' E 135°27'4 7.8
2017-Aug-17 05:30N 34°36' E 135°22'612.3
2017-Aug-17 05:00N 34°32' E 135°17'612.5
2017-Aug-17 04:30N 34°27' E 135°12'612.7
2017-Aug-17 04:01N 34°23' E 135°07'612.4
2017-Aug-17 03:30N 34°17' E 135°04'4 7.7
2017-Aug-17 03:00N 34°14' E 135°07'0 0.2
2017-Aug-17 02:30N 34°15' E 135°07'0 0.2
2017-Aug-17 01:57N 34°15' E 135°07'0 0.1
2017-Aug-17 01:27N 34°15' E 135°07'0 0.0
2017-Aug-17 00:58N 34°15' E 135°07'0 0.0
2017-Aug-17 00:29N 34°15' E 135°07'0 0.0
2017-Aug-16 23:56N 34°15' E 135°07'0 0.0
2017-Aug-16 23:30N 34°15' E 135°07'0 0.0
2017-Aug-16 23:00N 34°15' E 135°07'0 0.1
2017-Aug-16 22:30N 34°15' E 135°07'0 0.1
2017-Aug-16 21:56N 34°14' E 135°07'1 1.3
2017-Aug-16 21:30N 34°15' E 135°06'0 0.1
2017-Aug-16 21:00N 34°15' E 135°06'0 0.0
2017-Aug-16 20:30N 34°15' E 135°06'0 0.0
2017-Aug-16 20:00N 34°15' E 135°06'0 0.1
2017-Aug-16 19:30N 34°14' E 135°06'0 0.1
2017-Aug-16 19:00N 34°14' E 135°06'0 0.0
2017-Aug-16 18:30N 34°15' E 135°06'0 0.1
2017-Aug-16 18:01N 34°15' E 135°06'0 0.1
2017-Aug-16 17:30N 34°15' E 135°06'0 0.0
2017-Aug-16 17:00N 34°15' E 135°06'0 0.0
2017-Aug-16 16:30N 34°15' E 135°06'0 0.0
2017-Aug-16 16:00N 34°15' E 135°06'0 0.0
2017-Aug-16 15:30N 34°15' E 135°06'0 0.0
2017-Aug-16 15:00N 34°15' E 135°06'0 0.0
2017-Aug-16 14:30N 34°15' E 135°06'0 0.0
2017-Aug-16 14:00N 34°15' E 135°06'0 0.0
2017-Aug-16 13:31N 34°15' E 135°06'0 0.0
2017-Aug-16 13:00N 34°15' E 135°06'0 0.0
2017-Aug-16 12:30N 34°15' E 135°06'0 0.0
2017-Aug-16 12:00N 34°15' E 135°06'0 0.0
2017-Aug-16 11:31N 34°15' E 135°06'0 0.0
2017-Aug-16 11:00N 34°15' E 135°06'0 0.0
2017-Aug-16 10:30N 34°15' E 135°06'0 0.1
2017-Aug-16 10:00N 34°15' E 135°06'0 0.0
2017-Aug-16 09:30N 34°15' E 135°06'0 0.0
2017-Aug-16 09:00N 34°15' E 135°06'0 0.0
2017-Aug-16 08:30N 34°15' E 135°06'0 0.1
2017-Aug-16 08:00N 34°15' E 135°06'4 7.3
2017-Aug-16 07:30N 34°11' E 135°05'228 8.8
2017-Aug-15 05:35N 34°51' E 139°37'110.7
2017-Aug-15 05:29N 34°51' E 139°39'1110.9
2017-Aug-15 04:28N 34°52' E 139°52'  

Dump ship's entire track history